Time;durP1;ratioP1;P1;durP2;ratioP2;P2;SDS_P1;SDS_P2;PMS_P1;PMS_P2;Temp;Humidity;BMP_temperature;BMP_pressure;BME280_temperature;BME280_humidity;BME280_pressure;Samples;Min_cycle;Max_cycle;Signal;HPM_P1;HPM_P2
2022/04/15 00:01:08;;;;;;;19.08;8.73;;;;;;;5.96;100.00;102077.13;4935658;29;20568;-80
2022/04/15 00:03:35;;;;;;;14.25;7.90;;;;;;;5.92;100.00;102072.97;4933202;29;20028;-80
2022/04/15 00:06:00;;;;;;;18.67;8.48;;;;;;;5.73;100.00;102070.25;4914022;29;20365;-80
2022/04/15 00:08:26;;;;;;;15.60;8.65;;;;;;;5.83;100.00;102081.84;4932362;29;20038;-80
2022/04/15 00:10:52;;;;;;;14.18;7.75;;;;;;;5.68;100.00;102061.81;4957817;28;20158;-80
2022/04/15 00:13:24;;;;;;;14.43;7.30;;;;;;;5.88;100.00;102091.13;4953973;28;20134;-80
2022/04/15 00:15:50;;;;;;;15.23;8.10;;;;;;;5.92;100.00;102098.84;4941291;29;20031;-79
2022/04/15 00:18:16;;;;;;;12.27;6.40;;;;;;;5.90;100.00;102080.31;4938947;29;20054;-80
2022/04/15 00:20:41;;;;;;;13.07;7.28;;;;;;;5.94;100.00;102104.94;4938277;29;20032;-80
2022/04/15 00:23:08;;;;;;;17.35;7.70;;;;;;;5.93;100.00;102105.91;4938004;29;20055;-80
2022/04/15 00:25:33;;;;;;;15.38;7.15;;;;;;;5.88;100.00;102111.63;4918066;29;20052;-80
2022/04/15 00:27:58;;;;;;;12.95;7.18;;;;;;;5.78;100.00;102089.41;4919229;29;20032;-80
2022/04/15 00:30:24;;;;;;;11.63;6.85;;;;;;;5.94;100.00;102112.97;4932896;29;20028;-80
2022/04/15 00:32:49;;;;;;;10.88;6.55;;;;;;;5.88;100.00;102116.97;4938003;29;20043;-80
2022/04/15 00:35:14;;;;;;;14.43;6.03;;;;;;;5.75;100.00;102109.22;4906164;29;20032;-79
2022/04/15 00:37:40;;;;;;;12.00;5.97;;;;;;;5.77;100.00;102117.94;4950644;29;20051;-80
2022/04/15 00:40:09;;;;;;;10.63;6.00;;;;;;;5.82;100.00;102123.72;4938789;29;20059;-80
2022/04/15 00:42:35;;;;;;;13.25;6.70;;;;;;;5.56;100.00;102090.44;4938054;29;20070;-81
2022/04/15 00:45:02;;;;;;;9.40;6.07;;;;;;;5.89;100.00;102129.34;4939179;29;20053;-80
2022/04/15 00:47:36;;;;;;;8.98;5.75;;;;;;;5.98;100.00;102123.22;4938054;29;20055;-81
2022/04/15 00:50:03;;;;;;;11.27;5.90;;;;;;;5.96;100.00;102133.22;4938893;29;20042;-80
2022/04/15 00:52:33;;;;;;;12.40;6.53;;;;;;;5.82;100.00;102118.38;4936647;29;20028;-80
2022/04/15 00:55:03;;;;;;;10.07;5.65;;;;;;;5.82;100.00;102130.88;4937668;29;20042;-80
2022/04/15 00:57:30;;;;;;;11.13;6.22;;;;;;;5.93;100.00;102138.84;4923482;29;20028;-80
2022/04/15 00:59:58;;;;;;;12.73;5.85;;;;;;;5.91;100.00;102132.75;4935429;29;20075;-79
2022/04/15 01:02:24;;;;;;;11.73;6.18;;;;;;;5.88;100.00;102135.69;4935914;29;20023;-80
2022/04/15 01:04:52;;;;;;;11.27;6.30;;;;;;;5.72;100.00;102106.81;4938466;29;20095;-79
2022/04/15 01:07:19;;;;;;;9.57;6.18;;;;;;;5.84;100.00;102137.78;4944178;29;20374;-80
2022/04/15 01:09:50;;;;;;;10.32;6.35;;;;;;;5.87;100.00;102134.84;4936604;29;20454;-80
2022/04/15 01:12:17;;;;;;;11.10;6.82;;;;;;;5.80;100.00;102136.38;4934465;29;20505;-80
2022/04/15 01:14:44;;;;;;;9.60;6.13;;;;;;;5.96;100.00;102137.69;4938692;29;20118;-80
2022/04/15 01:17:09;;;;;;;12.85;6.43;;;;;;;5.94;100.00;102151.22;4938703;29;20401;-80
2022/04/15 01:19:34;;;;;;;11.77;6.82;;;;;;;5.91;100.00;102151.44;4938732;29;20032;-80
2022/04/15 01:22:03;;;;;;;9.68;5.88;;;;;;;5.83;100.00;102143.28;4936462;29;20437;-80
2022/04/15 01:24:29;;;;;;;14.40;6.43;;;;;;;5.96;100.00;102167.97;4940084;29;20059;-80
2022/04/15 01:26:54;;;;;;;11.50;6.32;;;;;;;5.90;100.00;102168.47;4946203;29;20039;-81
2022/04/15 01:29:20;;;;;;;10.85;5.93;;;;;;;5.97;100.00;102183.00;4950185;29;20027;-80
2022/04/15 01:31:45;;;;;;;8.38;5.47;;;;;;;5.92;100.00;102155.78;4950755;29;20035;-80
2022/04/15 01:34:10;;;;;;;9.93;5.65;;;;;;;5.95;100.00;102170.75;4921238;29;20111;-80
2022/04/15 01:36:36;;;;;;;9.95;5.80;;;;;;;5.95;100.00;102171.59;4933978;29;20050;-80
2022/04/15 01:39:02;;;;;;;8.88;5.88;;;;;;;5.89;100.00;102178.31;4901406;29;20028;-80
2022/04/15 01:41:27;;;;;;;8.60;5.68;;;;;;;5.86;100.00;102172.34;4917532;29;20038;-80
2022/04/15 01:43:53;;;;;;;8.60;5.70;;;;;;;5.93;100.00;102184.25;4919879;29;20027;-79
2022/04/15 01:46:19;;;;;;;10.57;6.20;;;;;;;5.91;100.00;102180.00;4935904;29;20040;-79
2022/04/15 01:48:44;;;;;;;9.68;5.68;;;;;;;5.93;100.00;102183.38;4940888;29;20040;-80
2022/04/15 01:51:09;;;;;;;14.48;6.43;;;;;;;5.92;100.00;102193.19;4943191;29;20186;-80
2022/04/15 01:53:35;;;;;;;11.38;6.10;;;;;;;5.86;100.00;102194.59;4937078;29;20039;-80
2022/04/15 01:56:00;;;;;;;11.27;6.00;;;;;;;5.77;100.00;102176.69;4937924;29;20035;-80
2022/04/15 01:58:25;;;;;;;12.32;5.88;;;;;;;6.02;100.00;102214.66;4916624;29;20039;-80
2022/04/15 02:00:51;;;;;;;11.63;6.65;;;;;;;5.91;100.00;102206.69;4921679;29;20126;-80
2022/04/15 02:03:16;;;;;;;10.90;6.25;;;;;;;6.01;100.00;102221.81;4948609;29;20031;-80
2022/04/15 02:05:42;;;;;;;11.15;5.68;;;;;;;5.93;100.00;102232.34;4942763;29;20133;-80
2022/04/15 02:08:08;;;;;;;10.32;5.95;;;;;;;5.81;100.00;102236.88;4949412;29;20043;-80
2022/04/15 02:10:33;;;;;;;10.60;6.10;;;;;;;5.84;100.00;102223.25;4940373;29;20414;-80
2022/04/15 02:12:58;;;;;;;8.68;6.13;;;;;;;5.91;100.00;102244.94;4924347;29;20036;-80
2022/04/15 02:15:24;;;;;;;11.07;6.55;;;;;;;5.94;100.00;102244.72;4944550;29;20032;-80
2022/04/15 02:17:49;;;;;;;10.95;6.13;;;;;;;6.01;100.00;102250.38;4946056;29;20031;-80
2022/04/15 02:20:14;;;;;;;9.52;6.00;;;;;;;5.74;100.00;102225.03;4939596;29;20548;-80
2022/04/15 02:22:40;;;;;;;10.75;6.00;;;;;;;5.82;100.00;102251.09;4936127;29;20035;-81
2022/04/15 02:25:06;;;;;;;8.77;5.95;;;;;;;5.83;100.00;102258.13;4924686;29;20046;-80
2022/04/15 02:27:31;;;;;;;11.35;5.53;;;;;;;5.82;100.00;102254.59;4907819;29;20094;-79
2022/04/15 02:29:57;;;;;;;7.75;5.38;;;;;;;5.84;100.00;102259.81;4941493;29;20422;-80
2022/04/15 02:32:23;;;;;;;7.55;5.70;;;;;;;5.83;100.00;102260.81;4938808;29;20031;-80
2022/04/15 02:34:50;;;;;;;9.55;6.25;;;;;;;5.73;100.00;102267.88;4940381;29;20032;-80
2022/04/15 02:37:16;;;;;;;12.65;6.57;;;;;;;5.74;100.00;102259.75;4938812;29;20038;-80
2022/04/15 02:39:41;;;;;;;9.15;5.75;;;;;;;5.77;100.00;102264.84;4939138;29;20031;-80
2022/04/15 02:42:07;;;;;;;10.57;6.25;;;;;;;5.71;100.00;102273.38;4939677;29;20036;-79
2022/04/15 02:44:32;;;;;;;8.93;6.05;;;;;;;5.81;100.00;102276.09;4936317;29;20036;-80
2022/04/15 02:46:58;;;;;;;11.77;6.70;;;;;;;5.65;100.00;102279.25;4939113;29;20024;-79
2022/04/15 02:49:27;;;;;;;9.27;6.18;;;;;;;5.80;100.00;102280.59;4938494;29;20043;-80
2022/04/15 02:51:53;;;;;;;9.07;6.07;;;;;;;5.92;100.00;102285.88;4939552;29;20056;-80
2022/04/15 02:54:18;;;;;;;10.10;6.03;;;;;;;5.94;100.00;102287.47;4940841;29;20043;-79
2022/04/15 02:56:44;;;;;;;8.85;6.18;;;;;;;5.91;100.00;102306.41;4938082;29;20059;-80
2022/04/15 02:59:09;;;;;;;8.32;6.40;;;;;;;5.78;100.00;102300.41;4940967;29;20031;-79
2022/04/15 03:01:34;;;;;;;10.52;6.40;;;;;;;5.87;100.00;102291.63;4934127;29;20464;-79
2022/04/15 03:04:00;;;;;;;14.70;7.18;;;;;;;5.79;100.00;102294.06;4941015;29;20414;-80
2022/04/15 03:06:25;;;;;;;11.80;6.47;;;;;;;5.91;100.00;102310.91;4939937;29;20077;-80
2022/04/15 03:08:51;;;;;;;14.65;6.80;;;;;;;5.80;100.00;102312.66;4938688;29;20040;-80
2022/04/15 03:11:16;;;;;;;11.77;6.95;;;;;;;5.85;100.00;102310.44;4955001;29;20031;-81
2022/04/15 03:13:42;;;;;;;10.85;6.35;;;;;;;5.70;100.00;102310.91;4957567;28;20536;-79
2022/04/15 03:16:08;;;;;;;9.70;6.50;;;;;;;5.63;100.00;102302.56;4942442;28;20367;-80
2022/04/15 03:18:33;;;;;;;12.00;6.53;;;;;;;5.65;100.00;102305.94;4940780;29;20035;-81
2022/04/15 03:20:58;;;;;;;11.52;6.40;;;;;;;5.84;100.00;102316.75;4938921;29;20043;-80
2022/04/15 03:23:24;;;;;;;9.63;6.53;;;;;;;5.80;100.00;102326.03;4940289;29;20031;-80
2022/04/15 03:25:49;;;;;;;14.15;6.40;;;;;;;5.73;100.00;102305.28;4944316;29;20040;-80
2022/04/15 03:28:16;;;;;;;11.65;6.13;;;;;;;5.65;100.00;102312.13;4939883;29;20079;-80
2022/04/15 03:30:43;;;;;;;9.88;5.40;;;;;;;5.88;100.00;102336.03;4938872;29;20032;-80
2022/04/15 03:33:09;;;;;;;9.70;6.20;;;;;;;5.87;100.00;102335.19;4937488;29;20055;-80
2022/04/15 03:35:34;;;;;;;12.00;6.15;;;;;;;5.72;100.00;102330.31;4936783;29;20456;-79
2022/04/15 03:38:00;;;;;;;10.52;5.97;;;;;;;5.74;100.00;102333.72;4939409;29;20032;-79
2022/04/15 03:40:25;;;;;;;13.68;6.32;;;;;;;5.71;100.00;102331.28;4936810;29;20232;-80
2022/04/15 03:42:53;;;;;;;12.25;6.30;;;;;;;5.77;100.00;102344.13;4922084;29;20067;-80
2022/04/15 03:45:19;;;;;;;12.30;6.97;;;;;;;5.63;100.00;102343.47;4936381;29;20023;-79
2022/04/15 03:47:49;;;;;;;8.48;5.72;;;;;;;5.63;100.00;102354.16;4937193;29;20046;-81
2022/04/15 03:50:15;;;;;;;12.10;5.97;;;;;;;5.64;100.00;102355.00;4937797;29;20019;-79
2022/04/15 03:52:44;;;;;;;8.50;5.78;;;;;;;5.64;100.00;102361.19;4942055;29;20031;-80
2022/04/15 03:55:10;;;;;;;10.60;6.20;;;;;;;5.65;100.00;102360.19;4918656;29;20446;-79
2022/04/15 03:57:37;;;;;;;10.68;6.28;;;;;;;5.73;100.00;102358.69;4920563;29;20095;-80
2022/04/15 04:00:07;;;;;;;9.82;6.22;;;;;;;5.57;100.00;102362.66;4938292;29;20111;-80
2022/04/15 04:02:33;;;;;;;9.50;6.00;;;;;;;5.54;100.00;102356.75;4917409;29;20027;-80
2022/04/15 04:04:58;;;;;;;12.30;6.40;;;;;;;5.48;100.00;102342.06;4937623;29;20043;-80
2022/04/15 04:07:23;;;;;;;8.02;6.00;;;;;;;5.54;100.00;102354.91;4936692;29;20107;-80
2022/04/15 04:09:49;;;;;;;9.82;6.45;;;;;;;5.65;100.00;102368.22;4921007;29;20063;-80
2022/04/15 04:12:14;;;;;;;12.88;6.30;;;;;;;5.63;100.00;102370.19;4911375;29;20251;-80
2022/04/15 04:14:39;;;;;;;11.68;6.70;;;;;;;5.58;100.00;102375.03;4941890;29;20130;-80
2022/04/15 04:17:05;;;;;;;9.82;6.07;;;;;;;5.62;100.00;102379.13;4936895;29;20119;-79
2022/04/15 04:19:30;;;;;;;8.13;5.63;;;;;;;5.62;100.00;102376.47;4937533;29;20530;-79
2022/04/15 04:21:55;;;;;;;7.97;5.63;;;;;;;5.70;100.00;102388.38;4936851;29;20039;-79
2022/04/15 04:24:21;;;;;;;10.35;5.95;;;;;;;5.59;100.00;102392.75;4935488;29;20051;-80
2022/04/15 04:26:46;;;;;;;9.48;5.72;;;;;;;5.64;100.00;102390.56;4935698;29;20050;-79
2022/04/15 04:29:11;;;;;;;8.63;5.22;;;;;;;5.70;100.00;102415.06;4936087;29;20114;-79
2022/04/15 04:31:37;;;;;;;9.00;5.88;;;;;;;5.49;100.00;102399.81;4937725;29;20031;-79
2022/04/15 04:34:02;;;;;;;9.23;6.00;;;;;;;5.73;100.00;102420.13;4935743;29;20514;-79
2022/04/15 04:36:27;;;;;;;8.98;6.30;;;;;;;5.56;100.00;102422.41;4922248;29;20469;-79
2022/04/15 04:38:53;;;;;;;10.35;6.05;;;;;;;5.42;100.00;102412.00;4919733;29;20134;-79
2022/04/15 04:41:18;;;;;;;7.22;5.53;;;;;;;5.49;100.00;102418.50;4935596;29;20118;-80
2022/04/15 04:43:43;;;;;;;8.95;6.10;;;;;;;5.54;100.00;102435.03;4932402;29;20154;-80
2022/04/15 04:46:09;;;;;;;9.40;5.68;;;;;;;5.58;100.00;102439.13;4920520;29;20091;-78
2022/04/15 04:48:34;;;;;;;9.18;5.32;;;;;;;5.61;100.00;102441.53;4934111;29;20114;-79
2022/04/15 04:51:00;;;;;;;10.13;5.70;;;;;;;5.49;100.00;102433.69;4919217;29;20056;-79
2022/04/15 04:53:25;;;;;;;9.20;5.78;;;;;;;5.41;100.00;102450.34;4935979;29;20031;-79
2022/04/15 04:55:50;;;;;;;9.85;5.45;;;;;;;5.45;100.00;102458.94;4933462;29;20454;-80
2022/04/15 04:58:16;;;;;;;7.72;5.97;;;;;;;5.48;100.00;102446.19;4933681;29;20036;-80
2022/04/15 05:00:41;;;;;;;8.73;4.65;;;;;;;5.50;100.00;102457.63;4934702;29;20036;-80
2022/04/15 05:03:08;;;;;;;7.13;5.32;;;;;;;5.52;100.00;102455.66;4936243;29;20507;-79
2022/04/15 05:05:33;;;;;;;6.53;4.75;;;;;;;5.48;100.00;102466.72;4935531;29;20028;-80
2022/04/15 05:07:59;;;;;;;7.53;4.72;;;;;;;5.39;100.00;102470.97;4918475;29;20047;-80
2022/04/15 05:10:24;;;;;;;7.85;4.20;;;;;;;5.48;100.00;102485.41;4900356;29;20036;-79
2022/04/15 05:12:50;;;;;;;6.55;4.70;;;;;;;5.46;100.00;102474.84;4943458;29;20051;-79
2022/04/15 05:15:15;;;;;;;6.47;4.05;;;;;;;5.48;100.00;102478.22;4954286;29;20083;-80
2022/04/15 05:17:40;;;;;;;6.85;4.05;;;;;;;5.47;100.00;102489.06;4931951;29;20047;-79
2022/04/15 05:20:07;;;;;;;7.63;4.40;;;;;;;5.41;100.00;102482.38;4916809;29;20039;-79
2022/04/15 05:22:33;;;;;;;7.60;4.68;;;;;;;5.46;100.00;102501.53;4929776;29;20044;-77
2022/04/15 05:24:58;;;;;;;6.68;4.40;;;;;;;5.45;100.00;102507.84;4940837;29;20124;-80
2022/04/15 05:27:24;;;;;;;6.47;4.10;;;;;;;5.57;100.00;102519.38;4926948;29;20051;-80
2022/04/15 05:29:49;;;;;;;6.95;4.05;;;;;;;5.46;100.00;102522.03;4916960;29;20077;-80
2022/04/15 05:32:15;;;;;;;6.47;3.95;;;;;;;5.38;100.00;102491.47;4918179;29;20043;-80
2022/04/15 05:34:42;;;;;;;7.80;3.67;;;;;;;5.62;100.00;102520.69;4937140;29;20031;-80
2022/04/15 05:37:08;;;;;;;6.68;4.30;;;;;;;5.62;100.00;102520.69;4936185;29;20032;-79
2022/04/15 05:39:33;;;;;;;8.30;4.25;;;;;;;5.34;100.00;102474.03;4936440;29;20031;-80
2022/04/15 05:41:58;;;;;;;7.63;4.00;;;;;;;5.45;100.00;102528.38;4934830;29;20339;-80
2022/04/15 05:44:24;;;;;;;7.72;4.10;;;;;;;5.50;100.00;102520.84;4937189;29;20024;-80
2022/04/15 05:46:49;;;;;;;6.15;3.88;;;;;;;5.62;100.00;102535.84;4933421;29;20070;-80
2022/04/15 05:49:15;;;;;;;5.25;3.40;;;;;;;5.68;100.00;102547.88;4936941;29;20052;-79
2022/04/15 05:51:42;;;;;;;7.90;3.45;;;;;;;5.63;100.00;102546.44;4932642;29;20107;-79
2022/04/15 05:54:08;;;;;;;6.20;3.30;;;;;;;5.63;100.00;102533.06;4935133;29;20043;-80
2022/04/15 05:56:33;;;;;;;10.30;3.92;;;;;;;5.56;100.00;102560.38;4936037;29;20023;-80
2022/04/15 05:58:59;;;;;;;5.47;3.45;;;;;;;5.54;100.00;102551.66;4938775;29;20538;-79
2022/04/15 06:01:24;;;;;;;4.82;3.45;;;;;;;5.59;100.00;102563.66;4918795;29;20031;-79
2022/04/15 06:03:50;;;;;;;4.32;3.55;;;;;;;5.45;100.00;102579.94;4937653;29;20050;-80
2022/04/15 06:06:17;;;;;;;6.50;3.70;;;;;;;5.57;100.00;102592.31;4944923;28;20035;-84
2022/04/15 06:08:42;;;;;;;5.85;3.22;;;;;;;5.54;100.00;102589.03;4948327;29;20043;-82
2022/04/15 06:11:07;;;;;;;8.20;3.42;;;;;;;5.46;100.00;102580.78;4977920;28;20036;-81
2022/04/15 06:13:33;;;;;;;5.97;3.50;;;;;;;5.64;100.00;102590.84;4970391;28;20031;-80
2022/04/15 06:15:59;;;;;;;4.60;3.33;;;;;;;5.67;100.00;102592.44;4958137;28;20141;-80
2022/04/15 06:18:34;;;;;;;5.63;3.50;;;;;;;5.75;100.00;102602.50;4943478;29;20028;-80
2022/04/15 06:21:00;;;;;;;6.97;3.40;;;;;;;5.72;100.00;102605.41;4945087;29;20078;-81
2022/04/15 06:23:26;;;;;;;7.25;3.67;;;;;;;5.70;100.00;102607.38;4946370;29;20027;-81
2022/04/15 06:25:52;;;;;;;5.65;3.25;;;;;;;5.84;100.00;102623.97;4940359;29;20004;-84
2022/04/15 06:28:17;;;;;;;5.68;3.10;;;;;;;5.68;100.00;102625.31;4941821;29;20035;-81
2022/04/15 06:30:42;;;;;;;5.40;3.28;;;;;;;5.63;100.00;102623.88;4969982;28;20043;-81
2022/04/15 06:33:09;;;;;;;9.30;3.67;;;;;;;5.62;100.00;102624.81;4959917;29;20031;-79
2022/04/15 06:35:35;;;;;;;6.80;3.40;;;;;;;5.49;100.00;102632.13;4935493;29;20027;-79
2022/04/15 06:38:00;;;;;;;6.72;3.65;;;;;;;5.42;100.00;102626.41;4922081;29;20040;-79
2022/04/15 06:40:26;;;;;;;7.28;3.60;;;;;;;5.39;100.00;102631.13;4917383;29;20039;-79
2022/04/15 06:42:51;;;;;;;7.80;3.80;;;;;;;5.48;100.00;102646.44;4928529;29;20501;-79
2022/04/15 06:45:17;;;;;;;5.57;3.20;;;;;;;5.43;100.00;102645.97;4934905;29;20122;-79
2022/04/15 06:47:42;;;;;;;5.82;3.53;;;;;;;5.58;100.00;102639.41;4919605;29;20035;-79
2022/04/15 06:50:08;;;;;;;5.20;3.28;;;;;;;5.61;100.00;102652.50;4935691;29;20143;-79
2022/04/15 06:52:34;;;;;;;6.28;3.42;;;;;;;5.51;100.00;102645.34;4940387;29;20040;-78
2022/04/15 06:54:59;;;;;;;6.57;3.72;;;;;;;5.56;100.00;102652.03;4939894;29;20094;-79
2022/04/15 06:57:24;;;;;;;6.72;3.47;;;;;;;5.55;100.00;102671.69;4939958;29;20425;-80
2022/04/15 06:59:50;;;;;;;7.03;3.38;;;;;;;5.45;100.00;102662.69;4937262;29;20047;-78
2022/04/15 07:02:15;;;;;;;5.43;3.17;;;;;;;5.73;100.00;102684.56;4922068;29;20039;-79
2022/04/15 07:04:41;;;;;;;5.10;3.15;;;;;;;5.63;100.00;102681.78;4936444;29;20051;-79
2022/04/15 07:07:06;;;;;;;7.22;3.50;;;;;;;5.49;100.00;102688.19;4937762;29;20024;-79
2022/04/15 07:09:32;;;;;;;6.88;2.92;;;;;;;5.54;100.00;102702.03;4929647;29;20046;-79
2022/04/15 07:11:57;;;;;;;6.57;2.92;;;;;;;5.54;100.00;102691.34;4931931;29;20474;-79
2022/04/15 07:14:22;;;;;;;5.45;2.95;;;;;;;5.54;100.00;102675.34;4934231;29;20354;-83
2022/04/15 07:16:48;;;;;;;7.22;2.97;;;;;;;5.77;100.00;102694.91;4951098;28;20040;-80
2022/04/15 07:19:13;;;;;;;5.53;3.03;;;;;;;5.72;100.00;102682.88;4957950;28;20035;-82
2022/04/15 07:21:44;;;;;;;5.65;3.10;;;;;;;5.70;100.00;102711.53;4960768;28;20011;-82
2022/04/15 07:24:10;;;;;;;5.93;2.92;;;;;;;5.73;100.00;102704.13;4950947;29;20039;-82
2022/04/15 07:26:37;;;;;;;5.45;2.58;;;;;;;5.64;100.00;102696.84;4961906;28;20083;-83
2022/04/15 07:29:04;;;;;;;5.55;3.00;;;;;;;5.63;100.00;102712.00;4964428;28;20019;-83
2022/04/15 07:31:29;;;;;;;5.57;2.78;;;;;;;5.56;100.00;102720.59;4980994;28;20078;-84
2022/04/15 07:33:55;;;;;;;4.85;2.92;;;;;;;5.68;100.00;102714.31;4977813;28;20044;-84
2022/04/15 07:39:03;;;;;;;6.03;2.75;;;;;;;5.59;100.00;102728.38;4962185;28;20012;-84
2022/04/15 07:41:28;;;;;;;3.17;2.22;;;;;;;5.67;100.00;102731.31;4953399;28;20031;-81
2022/04/15 07:43:54;;;;;;;5.18;2.80;;;;;;;5.49;100.00;102706.88;4959077;29;20074;-82
2022/04/15 07:46:19;;;;;;;4.75;2.53;;;;;;;5.45;100.00;102697.41;4957691;28;20071;-83
2022/04/15 07:48:44;;;;;;;4.28;2.60;;;;;;;5.76;100.00;102741.28;4960369;28;20117;-83
2022/04/15 07:51:10;;;;;;;4.30;2.60;;;;;;;5.65;100.00;102747.44;4963553;29;20039;-82
2022/04/15 07:53:35;;;;;;;8.52;2.75;;;;;;;5.69;100.00;102741.88;4958384;28;20020;-82
2022/04/15 07:56:01;;;;;;;5.40;2.67;;;;;;;5.68;100.00;102753.53;4959720;29;20031;-82
2022/04/15 07:58:27;;;;;;;3.70;2.60;;;;;;;5.68;100.00;102741.03;4958988;28;20035;-83
2022/04/15 08:03:27;;;;;;;4.13;2.35;;;;;;;5.71;100.00;102762.16;5087900;23;20039;-83
2022/04/15 08:05:54;;;;;;;4.22;2.47;;;;;;;5.74;100.00;102777.94;4946790;29;20497;-83
2022/04/15 08:08:20;;;;;;;5.60;2.40;;;;;;;5.79;100.00;102769.56;4954132;29;20108;-82
2022/04/15 08:10:47;;;;;;;4.45;2.50;;;;;;;4.80;100.00;102607.25;5075233;23;20048;-82
2022/04/15 08:13:13;;;;;;;4.35;2.60;;;;;;;4.72;100.00;102637.19;4939273;29;20083;-85
2022/04/15 08:15:38;;;;;;;3.92;2.50;;;;;;;4.46;100.00;102575.16;4953693;28;20016;-84
2022/04/15 08:20:39;;;;;;;4.60;2.50;;;;;;;6.24;100.00;102793.69;5840690;23;20048;-83
2022/04/15 08:23:04;;;;;;;3.13;2.25;;;;;;;6.25;100.00;102798.03;4927423;29;20084;-83
2022/04/15 08:25:30;;;;;;;3.97;2.38;;;;;;;6.07;100.00;102768.28;4922120;29;20075;-84
2022/04/15 08:27:56;;;;;;;2.97;2.40;;;;;;;6.27;100.00;102796.09;4936465;29;20032;-85
2022/04/15 08:30:22;;;;;;;2.70;2.03;;;;;;;6.54;100.00;102796.56;4934916;29;20059;-84
2022/04/15 08:32:53;;;;;;;4.53;1.90;;;;;;;6.40;100.00;102772.75;4939685;29;20047;-83
2022/04/15 08:35:19;;;;;;;2.10;1.80;;;;;;;6.75;100.00;102796.63;4953444;29;20008;-80
2022/04/15 08:37:44;;;;;;;3.55;2.20;;;;;;;6.62;100.00;102803.09;4950096;28;20103;-80
2022/04/15 08:42:45;;;;;;;4.32;1.80;;;;;;;6.74;100.00;102810.16;5181015;23;20052;-83
2022/04/15 08:45:14;;;;;;;5.05;1.80;;;;;;;6.72;100.00;102809.41;4959621;28;20126;-84
2022/04/15 08:50:17;;;;;;;3.55;2.03;;;;;;;6.16;100.00;102654.44;5034878;23;20063;-82
2022/04/15 08:52:44;;;;;;;3.13;1.88;;;;;;;5.77;100.00;102595.22;4958672;29;20024;-82
2022/04/15 08:55:11;;;;;;;3.05;2.08;;;;;;;7.24;100.00;102826.56;4958207;29;20024;-82
2022/04/15 08:57:37;;;;;;;3.42;1.92;;;;;;;5.60;100.00;102567.19;4954435;29;20047;-82
2022/04/15 09:00:05;;;;;;;3.10;1.80;;;;;;;5.52;100.00;102594.50;4959770;28;20024;-84
2022/04/15 09:02:37;;;;;;;3.67;1.88;;;;;;;5.61;100.00;102564.38;4957694;28;20004;-83
2022/04/15 09:05:04;;;;;;;2.38;1.90;;;;;;;5.89;100.00;102594.19;4959629;29;20015;-83
2022/04/15 09:07:31;;;;;;;2.15;1.73;;;;;;;5.92;100.00;102583.25;4955845;28;20028;-81
2022/04/15 09:09:58;;;;;;;2.35;1.70;;;;;;;7.62;100.00;102833.22;4941372;28;20036;-82
2022/04/15 09:12:33;;;;;;;1.77;1.60;;;;;;;7.64;100.00;102832.09;4940917;28;20048;-82
2022/04/15 09:15:00;;;;;;;2.67;1.58;;;;;;;7.59;100.00;102850.38;4951054;28;20015;-83
2022/04/15 09:17:29;;;;;;;3.63;1.70;;;;;;;7.38;100.00;102863.72;4953574;29;20043;-83
2022/04/15 09:19:55;;;;;;;3.50;1.42;;;;;;;7.41;100.00;102862.63;4950734;28;20063;-82
2022/04/15 09:22:20;;;;;;;2.67;1.45;;;;;;;7.56;100.00;102857.84;4951098;28;20036;-83
2022/04/15 09:24:47;;;;;;;2.78;1.40;;;;;;;7.37;100.00;102851.31;4959606;29;20087;-84
2022/04/15 09:27:14;;;;;;;2.65;1.70;;;;;;;7.46;100.00;102853.25;4954329;28;20068;-84
2022/04/15 09:29:40;;;;;;;2.17;1.40;;;;;;;7.59;100.00;102871.81;4960276;28;20015;-84
2022/04/15 09:35:03;;;;;;;3.17;1.40;;;;;;;6.23;100.00;102650.31;5851474;23;20056;-83
2022/04/15 09:37:43;;;;;;;2.20;1.45;;;;;;;6.34;100.00;102690.38;4920358;29;20057;-84
2022/04/15 09:42:54;;;;;;;2.75;1.38;;;;;;;7.68;100.00;102867.50;5635419;23;20063;-84
2022/04/15 09:48:14;;;;;;;2.72;1.17;;;;;;;7.66;100.00;102882.88;5062520;23;20089;-82
2022/04/15 09:53:18;;;;;;;2.47;1.40;;;;;;;8.33;100.00;102890.50;5092178;23;20110;-81
2022/04/15 09:55:51;;;;;;;1.92;1.35;;;;;;;8.24;100.00;102883.25;5213421;23;20119;-83
2022/04/15 09:58:22;;;;;;;3.30;1.55;;;;;;;8.23;100.00;102882.41;4939596;29;20012;-82
2022/04/15 10:00:53;;;;;;;3.28;1.17;;;;;;;8.91;100.00;102884.56;4936041;29;20012;-84
2022/04/15 10:05:55;;;;;;;4.47;1.33;;;;;;;8.79;100.00;102872.22;5736719;23;20051;-81
2022/04/15 10:08:23;;;;;;;2.95;1.50;;;;;;;8.73;100.00;102894.25;4928610;28;20025;-82
2022/04/15 10:10:50;;;;;;;3.70;1.60;;;;;;;8.67;100.00;102909.03;4934169;28;20048;-83
2022/04/15 10:13:16;;;;;;;3.53;1.60;;;;;;;7.82;100.00;102807.41;4956174;23;20063;-82
2022/04/15 10:15:41;;;;;;;2.22;1.10;;;;;;;7.25;100.00;102726.50;4915615;29;20029;-82
2022/04/15 10:18:08;;;;;;;2.28;1.10;;;;;;;7.17;100.00;102683.47;5201107;23;20060;-84
2022/04/15 10:20:34;;;;;;;4.22;1.50;;;;;;;8.33;100.00;102898.56;4938836;29;20029;-82
2022/04/15 10:23:04;;;;;;;2.50;1.40;;;;;;;7.70;100.00;102825.34;4929900;29;20402;-80
2022/04/15 10:25:30;;;;;;;2.03;1.27;;;;;;;7.50;100.00;102803.78;4939330;29;20000;-83
2022/04/15 10:28:11;;;;;;;3.33;1.30;;;;;;;8.24;100.00;102905.59;4939986;29;20022;-84
2022/04/15 10:30:38;;;;;;;3.25;1.60;;;;;;;7.93;100.00;102821.56;4940011;29;20008;-83
2022/04/15 10:33:04;;;;;;;2.33;1.20;;;;;;;8.38;100.00;102916.97;4940282;29;20020;-83
2022/04/15 10:35:32;;;;;;;3.17;1.30;;;;;;;6.83;100.00;102713.09;4937327;29;20087;-82
2022/04/15 10:38:02;;;;;;;2.45;1.25;;;;;;;6.51;100.00;102687.16;4941340;28;20018;-83
2022/04/15 10:40:32;;;;;;;2.92;1.20;;;;;;;7.97;100.00;102927.53;4931108;29;20065;-82
2022/04/15 10:43:24;;;;;;;2.55;1.15;;;;;;;8.49;100.00;102924.09;4953703;29;20034;-81
2022/04/15 10:45:54;;;;;;;2.25;1.20;;;;;;;8.78;100.00;102922.38;4955739;28;20055;-83
2022/04/15 10:48:31;;;;;;;3.13;1.33;;;;;;;7.56;100.00;102721.22;5102843;23;20068;-81
2022/04/15 10:50:57;;;;;;;3.50;1.23;;;;;;;8.59;100.00;102935.72;4935586;29;20028;-84
2022/04/15 10:53:30;;;;;;;2.60;0.95;;;;;;;8.92;100.00;102913.94;4936755;29;20063;-82
2022/04/15 10:56:06;;;;;;;2.13;1.30;;;;;;;9.18;100.00;102914.31;5106730;23;1403681;-81
2022/04/15 10:58:31;;;;;;;2.38;1.20;;;;;;;8.04;100.00;102742.03;4922852;29;20049;-81
2022/04/15 11:01:19;;;;;;;3.45;1.27;;;;;;;9.00;100.00;102915.09;4937856;28;20111;-82
2022/04/15 11:03:53;;;;;;;2.00;1.08;;;;;;;8.77;100.00;102895.66;5004271;23;21305;-82
2022/04/15 11:06:26;;;;;;;4.00;1.20;;;;;;;8.62;100.00;102905.94;4936167;29;20035;-81
2022/04/15 11:08:52;;;;;;;1.83;1.02;;;;;;;8.55;100.00;102910.16;4935513;29;20450;-81
2022/04/15 11:11:18;;;;;;;2.42;1.10;;;;;;;8.53;100.00;102899.53;4943910;29;20036;-81
2022/04/15 11:13:44;;;;;;;2.35;0.98;;;;;;;8.66;100.00;102910.03;4943076;29;20027;-81
2022/04/15 11:16:13;;;;;;;2.10;1.00;;;;;;;8.74;100.00;102891.44;4945046;29;20370;-80
2022/04/15 11:19:01;;;;;;;4.22;1.20;;;;;;;8.86;98.20;102906.44;4952281;29;20067;-80
2022/04/15 11:21:30;;;;;;;1.30;1.00;;;;;;;8.93;100.00;102896.84;4919834;29;20043;-81
2022/04/15 11:24:00;;;;;;;1.42;0.80;;;;;;;9.20;97.79;102908.78;4936995;29;20028;-82
2022/04/15 11:26:27;;;;;;;2.65;0.90;;;;;;;9.40;99.22;102915.03;4929587;29;20134;-81
2022/04/15 11:28:56;;;;;;;3.47;0.93;;;;;;;9.73;96.58;102904.88;4930852;29;20035;-82
2022/04/15 11:31:30;;;;;;;3.25;0.80;;;;;;;10.17;96.91;102930.31;4931379;29;20025;-81
2022/04/15 11:34:02;;;;;;;1.90;1.00;;;;;;;10.53;95.01;102920.63;4944504;29;20031;-82
2022/04/15 11:36:31;;;;;;;2.83;1.00;;;;;;;10.34;92.66;102916.16;4952490;29;20027;-82
2022/04/15 11:38:59;;;;;;;2.75;0.90;;;;;;;9.91;93.51;102881.66;4947761;28;20032;-83
2022/04/15 11:41:25;;;;;;;3.17;1.20;;;;;;;10.02;91.79;102918.28;4953943;29;20056;-81
2022/04/15 11:43:59;;;;;;;1.70;0.88;;;;;;;10.01;90.99;102917.44;5099721;23;20521;-80
2022/04/15 11:46:45;;;;;;;1.38;0.90;;;;;;;10.23;91.13;102924.38;4946816;29;20036;-82
2022/04/15 11:49:22;;;;;;;2.58;0.73;;;;;;;10.18;86.29;102920.41;4949042;29;20035;-82